Yosemite National Park, CA

12:02 AM PDT on October 26, 2014 (GMT -0700)
Madera Municipal | Change Station
CLOSE
Current Station
Airport
Location: Madera,
Elevation: 253 ft
Nearby Weather Stations

Elev 253 ft 36.99 °N, 120.11 °W | Updated 9 minutes ago

Clear
Clear
57 °F
Feels Like 57 °F
N
7
Wind Variable Wind from NW

Today
High -- | Low -- °F
--% Chance of Precip.
Yesterday
High -- | Low -- °F
Precip. -- in
7:17 AM 6:06 PM
Waxing Crescent, 6% visible
Pressure 30.10 in
Visibility 10.0 miles
Clouds Few 7500 ft
Dew Point 53 °F
Humidity 87%
Rainfall 0.00 in
Snow Depth Not available.
UV 0 out of 12
Pollen 2.00 out of 12
Air Quality Not available.
Flu Activity Sporadic
METAR KMAE 260653Z AUTO 31006KT 10SM FEW075 14/12 A3011 RMK AO2 SLP193 T01390117

More Conditions Fewer Conditions

Pressure 30.10 in
Visibility 10.0 miles
Clouds Few 7500 ft
Dew Point 53 °F
Humidity 87%
Rainfall 0.00 in
Snow Depth Not available.
UV 0 out of 12
Pollen 2.00 out of 12
Air Quality Not available.
Flu Activity Sporadic
METAR KMAE 260653Z AUTO 31006KT 10SM FEW075 14/12 A3011 RMK AO2 SLP193 T01390117

More Conditions Fewer Conditions

10-Day Weather Forecast

Almanac

Astronomy

Oct. 26, 2014 Rise Set
Actual Time 7:17 AM PDT 6:06 PM PDT
Civil Twilight 6:50 AM PDT 6:33 PM PDT
Nautical Twilight 6:19 AM PDT 7:04 PM PDT
Astronomical Twilight 5:49 AM PDT 7:34 PM PDT
Moon 9:58 AM PDT 8:24 PM PDT
Length of Visible Light 11h 42m
Length of Day
10h 48m
Tomorrow will be 2m 13s shorter.
Waxing Crescent, 6% of the Moon is Illuminated
Today
Waxing Crescent
Oct 30
First Quarter
Nov 6
Full
Nov 14
Last Quarter
Nov 22
New

Community

WunderPhotos

Upload Photos

1,765,115 photos uploaded!

Nearby

Snow Depth

Station Depth Elevation
Virginia Lakes Ridge 0 in 9200 ft
Leavitt Lake 2 in 9400 ft
Sonora Pass 0 in 8800 ft
Summit Meadow 0 in 9122 ft
Poison Flat 0 in 7900 ft

Earthquake Activity

City Distance Mag. Time & Date
Lone Pine, California 140 miles 3.6 7:31 AM PDT
2014-10-25
Coalinga, California 133 miles 2.5 11:01 PM PDT
2014-10-24
Minimum magnitude displayed is 2.5.

Coastal Water Temperatures

Place Temperature
No Stations Reporting

Nearby Weather Stations